createdAt,value
2017-04-13T00:00:12.850Z,11.97
2017-04-13T00:01:12.820Z,12
2017-04-13T00:02:12.834Z,11.87
2017-04-13T00:03:12.850Z,11.9
2017-04-13T00:04:12.883Z,11.87
2017-04-13T00:05:12.888Z,11.94
2017-04-13T00:06:12.911Z,11.9
2017-04-13T00:07:12.610Z,11.88
2017-04-13T00:08:12.941Z,11.95
2017-04-13T00:09:12.959Z,11.9
2017-04-13T00:10:12.662Z,11.86
2017-04-13T00:11:12.993Z,11.84
2017-04-13T00:12:13.008Z,11.87
2017-04-13T00:13:13.027Z,11.88
2017-04-13T00:14:13.046Z,11.9
2017-04-13T00:15:13.064Z,11.88
2017-04-13T00:16:13.078Z,11.88
2017-04-13T00:17:13.101Z,11.87
2017-04-13T00:18:12.800Z,11.83
2017-04-13T00:19:13.132Z,11.84
2017-04-13T00:20:13.146Z,11.8
2017-04-13T00:21:13.160Z,11.8
2017-04-13T00:22:13.181Z,11.73
2017-04-13T00:23:13.191Z,11.75
2017-04-13T00:24:13.219Z,11.73
2017-04-13T00:25:13.232Z,11.81
2017-04-13T00:26:13.249Z,11.77
2017-04-13T00:27:13.267Z,11.81
2017-04-13T00:28:13.283Z,11.86
2017-04-13T00:29:13.296Z,11.78
2017-04-13T00:30:13.319Z,11.75
2017-04-13T00:31:13.334Z,11.72
2017-04-13T00:32:13.347Z,11.73
2017-04-13T00:33:13.365Z,11.78
2017-04-13T00:34:13.068Z,11.78
2017-04-13T00:35:13.397Z,11.81
2017-04-13T00:36:13.410Z,11.77
2017-04-13T00:37:13.118Z,11.77
2017-04-13T00:38:13.450Z,11.84
2017-04-13T00:39:13.473Z,11.72
2017-04-13T00:40:13.484Z,11.81
2017-04-13T00:41:13.499Z,11.77
2017-04-13T00:42:13.517Z,11.73
2017-04-13T00:43:13.535Z,11.77
2017-04-13T00:44:13.545Z,11.77
2017-04-13T00:45:13.563Z,11.86
2017-04-13T00:46:13.580Z,11.83
2017-04-13T00:47:13.598Z,11.77
2017-04-13T00:48:13.619Z,11.77
2017-04-13T00:49:13.640Z,11.8
2017-04-13T00:50:13.653Z,11.78
2017-04-13T00:51:13.664Z,11.81
2017-04-13T00:52:13.688Z,11.78
2017-04-13T00:53:13.700Z,11.77
2017-04-13T00:54:13.719Z,11.8
2017-04-13T00:55:13.437Z,11.77
2017-04-13T00:56:13.748Z,11.7
2017-04-13T00:57:13.769Z,11.77
2017-04-13T00:58:13.802Z,11.78
2017-04-13T00:59:13.802Z,11.73
2017-04-13T01:00:13.820Z,11.72
2017-04-13T01:01:13.841Z,11.77
2017-04-13T01:02:13.849Z,11.8
2017-04-13T01:03:13.869Z,11.75
2017-04-13T01:04:13.884Z,11.78
2017-04-13T01:05:13.900Z,11.83
2017-04-13T01:06:13.924Z,11.8
2017-04-13T01:07:13.718Z,11.78
2017-04-13T01:08:14.143Z,11.77
2017-04-13T01:09:14.194Z,11.7
2017-04-13T01:10:14.108Z,11.8
2017-04-13T01:11:14.110Z,11.73
2017-04-13T01:12:14.119Z,11.73
2017-04-13T01:13:14.126Z,11.78
2017-04-13T01:14:14.269Z,11.75
2017-04-13T01:15:14.279Z,11.7
2017-04-13T01:16:14.183Z,11.8
2017-04-13T01:17:14.189Z,11.8
2017-04-13T01:18:14.199Z,11.8
2017-04-13T01:19:14.210Z,11.81
2017-04-13T01:20:14.249Z,11.77
2017-04-13T01:21:14.317Z,11.75
2017-04-13T01:22:13.951Z,11.81
2017-04-13T01:23:14.273Z,11.72
2017-04-13T01:24:14.309Z,11.78
2017-04-13T01:25:13.990Z,11.8
2017-04-13T01:26:14.000Z,11.78
2017-04-13T01:27:14.014Z,11.75
2017-04-13T01:28:14.292Z,11.78
2017-04-13T01:29:14.449Z,11.7
2017-04-13T01:30:14.319Z,11.77
2017-04-13T01:31:14.335Z,11.77
2017-04-13T01:32:14.362Z,11.77
2017-04-13T01:33:14.373Z,11.8
2017-04-13T01:34:14.388Z,11.7
2017-04-13T01:35:14.403Z,11.77
2017-04-13T01:36:14.417Z,11.7
2017-04-13T01:37:14.437Z,11.86
2017-04-13T01:38:14.451Z,11.78
2017-04-13T01:39:14.164Z,11.8
2017-04-13T01:40:14.486Z,11.75
2017-04-13T01:41:14.504Z,11.84
2017-04-13T01:42:14.518Z,11.77
2017-04-13T01:43:14.537Z,11.78
2017-04-13T01:44:14.557Z,11.8
2017-04-13T01:45:14.569Z,11.8
2017-04-13T01:46:14.589Z,11.78
2017-04-13T01:47:14.604Z,11.77
2017-04-13T01:48:14.629Z,11.78
2017-04-13T01:49:14.637Z,11.77
2017-04-13T01:50:14.658Z,11.72
2017-04-13T01:51:14.673Z,11.73
2017-04-13T01:52:14.694Z,11.75
2017-04-13T01:53:14.708Z,11.78
2017-04-13T01:54:14.726Z,11.78
2017-04-13T01:55:14.788Z,11.84
2017-04-13T01:56:14.177Z,11.78
2017-04-13T01:57:14.775Z,11.83
2017-04-13T01:58:14.476Z,11.78
2017-04-13T01:59:14.808Z,11.8
2017-04-13T02:00:14.821Z,11.72
2017-04-13T02:01:14.843Z,11.84
2017-04-13T02:02:14.859Z,11.77
2017-04-13T02:03:14.875Z,11.84
2017-04-13T02:04:14.579Z,11.84
2017-04-13T02:05:14.906Z,11.78
2017-04-13T02:06:14.926Z,11.72
2017-04-13T02:07:14.950Z,11.84
2017-04-13T02:08:14.953Z,11.78
2017-04-13T02:09:14.970Z,11.77
2017-04-13T02:10:14.990Z,11.83
2017-04-13T02:11:15.009Z,11.81
2017-04-13T02:12:15.025Z,11.81
2017-04-13T02:13:15.040Z,11.75
2017-04-13T02:14:15.061Z,11.72
2017-04-13T02:15:15.077Z,11.86
2017-04-13T02:16:15.090Z,11.78
2017-04-13T02:17:15.122Z,11.78
2017-04-13T02:18:15.137Z,11.84
2017-04-13T02:19:15.144Z,11.77
2017-04-13T02:20:15.159Z,11.78
2017-04-13T02:21:15.174Z,11.77
2017-04-13T02:22:15.192Z,11.77
2017-04-13T02:23:15.204Z,11.8
2017-04-13T02:24:15.220Z,11.8
2017-04-13T02:25:15.248Z,11.7
2017-04-13T02:26:15.258Z,11.73
2017-04-13T02:27:15.276Z,11.7
2017-04-13T02:28:15.299Z,11.77
2017-04-13T02:29:15.303Z,11.69
2017-04-13T02:30:15.328Z,11.75
2017-04-13T02:31:15.346Z,11.73
2017-04-13T02:32:15.357Z,11.75
2017-04-13T02:33:15.374Z,11.73
2017-04-13T02:34:15.398Z,11.81
2017-04-13T02:35:15.412Z,11.75
2017-04-13T02:36:15.550Z,11.75
2017-04-13T02:37:15.542Z,11.68
2017-04-13T02:38:15.459Z,11.75
2017-04-13T02:39:15.168Z,11.78
2017-04-13T02:40:15.499Z,11.68
2017-04-13T02:41:15.195Z,11.66
2017-04-13T02:42:15.531Z,11.73
2017-04-13T02:43:15.543Z,11.68
2017-04-13T02:44:15.557Z,11.69
2017-04-13T02:45:15.577Z,11.73
2017-04-13T02:46:15.594Z,11.77
2017-04-13T02:47:15.611Z,11.75
2017-04-13T02:48:15.627Z,11.65
2017-04-13T02:49:15.641Z,11.66
2017-04-13T02:50:15.661Z,11.68
2017-04-13T02:51:15.672Z,11.66
2017-04-13T02:52:15.691Z,11.6
2017-04-13T02:53:15.710Z,11.57
2017-04-13T02:54:15.726Z,11.63
2017-04-13T02:55:15.743Z,11.6
2017-04-13T02:56:15.758Z,11.51
2017-04-13T02:57:15.775Z,11.51
2017-04-13T02:58:15.790Z,11.55
2017-04-13T02:59:15.808Z,11.59
2017-04-13T03:00:15.824Z,11.48
2017-04-13T03:01:15.836Z,11.45
2017-04-13T03:02:15.861Z,11.47
2017-04-13T03:03:15.878Z,11.48
2017-04-13T03:04:15.891Z,11.48
2017-04-13T03:05:16.033Z,11.44
2017-04-13T03:06:16.042Z,11.44
2017-04-13T03:07:16.052Z,11.48
2017-04-13T03:08:16.061Z,11.44
2017-04-13T03:09:16.082Z,11.43
2017-04-13T03:10:15.994Z,11.4
2017-04-13T03:11:16.013Z,11.4
2017-04-13T03:12:16.022Z,11.35
2017-04-13T03:13:16.049Z,11.36
2017-04-13T03:14:16.058Z,11.33
2017-04-13T03:15:16.076Z,11.35
2017-04-13T03:16:16.210Z,11.37
2017-04-13T03:17:16.218Z,11.35
2017-04-13T03:18:16.142Z,11.36
2017-04-13T03:19:16.151Z,11.35
2017-04-13T03:20:16.277Z,11.3
2017-04-13T03:21:16.287Z,11.29
2017-04-13T03:22:16.308Z,11.26
2017-04-13T03:23:16.004Z,11.3
2017-04-13T03:24:16.021Z,11.35
2017-04-13T03:25:16.334Z,11.33
2017-04-13T03:26:16.490Z,11.26
2017-04-13T03:27:16.490Z,11.22
2017-04-13T03:28:16.498Z,11.23
2017-04-13T03:29:16.514Z,11.25
2017-04-13T03:30:16.416Z,11.25
2017-04-13T03:31:16.435Z,11.22
2017-04-13T03:32:16.453Z,11.25
2017-04-13T03:33:16.462Z,11.22
2017-04-13T03:34:16.406Z,11.25
2017-04-13T03:35:16.403Z,11.26
2017-04-13T03:36:16.421Z,11.14
2017-04-13T03:37:16.433Z,11.23
2017-04-13T03:38:16.454Z,11.23
2017-04-13T03:39:16.154Z,11.22
2017-04-13T03:40:16.489Z,11.15
2017-04-13T03:41:16.501Z,11.14
2017-04-13T03:42:16.518Z,11.12
2017-04-13T03:43:16.537Z,11.08
2017-04-13T03:44:16.557Z,11.07
2017-04-13T03:45:16.565Z,11.1
2017-04-13T03:46:16.584Z,11.02
2017-04-13T03:47:16.600Z,11.08
2017-04-13T03:48:16.303Z,11.05
2017-04-13T03:49:16.637Z,11.05
2017-04-13T03:50:16.649Z,11.02
2017-04-13T03:51:16.668Z,11.07
2017-04-13T03:52:16.686Z,11.04
2017-04-13T03:53:16.706Z,11.04
2017-04-13T03:54:16.843Z,10.97
2017-04-13T03:55:16.733Z,10.99
2017-04-13T03:56:16.764Z,11.05
2017-04-13T03:57:16.832Z,10.97
2017-04-13T03:58:16.831Z,11.05
2017-04-13T03:59:16.497Z,11.02
2017-04-13T04:00:16.909Z,11.04
2017-04-13T04:01:16.919Z,10.94
2017-04-13T04:02:16.965Z,11
2017-04-13T04:03:16.974Z,10.96
2017-04-13T04:04:16.943Z,10.97
2017-04-13T04:05:17.003Z,11.08
2017-04-13T04:06:17.012Z,10.99
2017-04-13T04:07:17.021Z,11.05
2017-04-13T04:08:17.029Z,10.93
2017-04-13T04:09:17.028Z,11
2017-04-13T04:10:17.039Z,10.92
2017-04-13T04:11:17.046Z,10.92
2017-04-13T04:12:17.054Z,10.99
2017-04-13T04:13:17.063Z,10.96
2017-04-13T04:14:17.178Z,11
2017-04-13T04:15:16.810Z,10.93
2017-04-13T04:16:17.119Z,10.9
2017-04-13T04:17:17.129Z,10.86
2017-04-13T04:18:17.127Z,10.94
2017-04-13T04:19:17.135Z,10.93
2017-04-13T04:20:17.145Z,10.89
2017-04-13T04:21:17.153Z,10.89
2017-04-13T04:22:17.175Z,10.9
2017-04-13T04:23:17.187Z,10.9
2017-04-13T04:24:17.208Z,10.87
2017-04-13T04:25:17.222Z,10.87
2017-04-13T04:26:17.432Z,10.81
2017-04-13T04:27:17.251Z,10.75
2017-04-13T04:28:17.266Z,10.87
2017-04-13T04:29:17.285Z,10.89
2017-04-13T04:30:17.298Z,10.84
2017-04-13T04:31:17.480Z,10.76
2017-04-13T04:32:17.514Z,10.81
2017-04-13T04:33:17.525Z,10.79
2017-04-13T04:34:17.522Z,10.82
2017-04-13T04:35:17.384Z,10.84
2017-04-13T04:36:17.392Z,10.78
2017-04-13T04:37:17.406Z,10.78
2017-04-13T04:38:17.424Z,10.84
2017-04-13T04:39:17.441Z,10.79
2017-04-13T04:40:17.464Z,10.86
2017-04-13T04:41:17.480Z,10.86
2017-04-13T04:42:17.491Z,10.74
2017-04-13T04:43:17.512Z,10.72
2017-04-13T04:44:17.522Z,10.74
2017-04-13T04:45:17.537Z,10.81
2017-04-13T04:46:17.555Z,10.81
2017-04-13T04:47:17.578Z,10.78
2017-04-13T04:48:17.588Z,10.79
2017-04-13T04:49:17.601Z,10.76
2017-04-13T04:50:17.618Z,10.78
2017-04-13T04:51:17.638Z,10.81
2017-04-13T04:52:17.650Z,10.76
2017-04-13T04:53:17.668Z,10.93
2017-04-13T04:54:17.688Z,10.79
2017-04-13T04:55:17.706Z,10.89
2017-04-13T04:56:17.718Z,10.76
2017-04-13T04:57:17.736Z,10.81
2017-04-13T04:58:17.798Z,10.74
2017-04-13T04:59:17.769Z,10.82
2017-04-13T05:00:17.781Z,10.81
2017-04-13T05:01:17.856Z,10.87
2017-04-13T05:02:17.828Z,10.76
2017-04-13T05:03:17.828Z,10.84
2017-04-13T05:04:17.849Z,10.78
2017-04-13T05:05:17.861Z,10.84
2017-04-13T05:06:17.568Z,10.78
2017-04-13T05:07:17.901Z,10.84
2017-04-13T05:08:17.914Z,10.75
2017-04-13T05:09:17.929Z,10.84
2017-04-13T05:10:17.948Z,10.87
2017-04-13T05:11:17.963Z,10.78
2017-04-13T05:12:17.971Z,10.89
2017-04-13T05:13:18.013Z,10.86
2017-04-13T05:14:18.003Z,10.81
2017-04-13T05:15:17.720Z,10.82
2017-04-13T05:16:18.046Z,10.87
2017-04-13T05:17:18.062Z,10.86
2017-04-13T05:18:18.073Z,10.87
2017-04-13T05:19:18.090Z,10.87
2017-04-13T05:20:18.107Z,10.89
2017-04-13T05:21:17.809Z,10.89
2017-04-13T05:22:18.137Z,10.89
2017-04-13T05:23:18.157Z,10.93
2017-04-13T05:24:18.171Z,10.92
2017-04-13T05:25:18.186Z,10.92
2017-04-13T05:26:18.199Z,10.9
2017-04-13T05:27:18.217Z,10.9
2017-04-13T05:28:18.229Z,10.93
2017-04-13T05:29:18.250Z,10.89
2017-04-13T05:30:18.264Z,10.92
2017-04-13T05:31:18.284Z,10.93
2017-04-13T05:32:18.293Z,10.86
2017-04-13T05:33:18.315Z,10.92
2017-04-13T05:34:18.333Z,10.89
2017-04-13T05:35:18.346Z,10.92
2017-04-13T05:36:18.356Z,10.93
2017-04-13T05:37:18.378Z,10.93
2017-04-13T05:38:18.394Z,10.97
2017-04-13T05:39:18.411Z,10.94
2017-04-13T05:40:18.111Z,10.99
2017-04-13T05:41:18.443Z,10.94
2017-04-13T05:42:18.461Z,10.99
2017-04-13T05:43:18.469Z,10.97
2017-04-13T05:44:18.492Z,10.94
2017-04-13T05:45:18.503Z,11.02
2017-04-13T05:46:18.521Z,11.02
2017-04-13T05:47:18.537Z,11.04
2017-04-13T05:48:18.559Z,10.93
2017-04-13T05:49:18.571Z,10.97
2017-04-13T05:50:18.587Z,11.05
2017-04-13T05:51:18.606Z,11.15
2017-04-13T05:52:18.620Z,11.08
2017-04-13T05:53:18.317Z,11.08
2017-04-13T05:54:18.652Z,11.1
2017-04-13T05:55:18.667Z,11.08
2017-04-13T05:56:18.686Z,11.12
2017-04-13T05:57:18.702Z,11.08
2017-04-13T05:58:18.712Z,11.11
2017-04-13T05:59:18.732Z,11.14
2017-04-13T06:00:18.744Z,11.1
2017-04-13T06:01:18.762Z,11.1
2017-04-13T06:02:18.776Z,11.08
2017-04-13T06:03:18.796Z,11.1
2017-04-13T06:04:18.182Z,11.08
2017-04-13T06:05:18.827Z,11.12
2017-04-13T06:06:18.844Z,11.12
2017-04-13T06:07:18.546Z,11.1
2017-04-13T06:08:18.879Z,11.08
2017-04-13T06:09:18.893Z,11.12
2017-04-13T06:10:18.903Z,11.12
2017-04-13T06:11:18.925Z,11.12
2017-04-13T06:12:18.937Z,11.17
2017-04-13T06:13:18.952Z,11.14
2017-04-13T06:14:18.974Z,11.05
2017-04-13T06:15:18.989Z,11.12
2017-04-13T06:16:19.007Z,11.08
2017-04-13T06:17:19.026Z,11.07
2017-04-13T06:18:19.034Z,11.08
2017-04-13T06:19:19.053Z,11.14
2017-04-13T06:20:19.066Z,11.11
2017-04-13T06:21:19.083Z,11.1
2017-04-13T06:22:18.789Z,11.11
2017-04-13T06:23:19.117Z,11.11
2017-04-13T06:24:19.131Z,11.11
2017-04-13T06:25:19.195Z,11.12
2017-04-13T06:26:19.174Z,11.15
2017-04-13T06:27:19.179Z,11.14
2017-04-13T06:28:19.202Z,11.19
2017-04-13T06:29:19.218Z,11.19
2017-04-13T06:30:19.230Z,11.17
2017-04-13T06:31:19.241Z,11.15
2017-04-13T06:32:18.953Z,11.17
2017-04-13T06:33:19.277Z,11.14
2017-04-13T06:34:19.293Z,11.14
2017-04-13T06:35:19.314Z,11.19
2017-04-13T06:36:19.331Z,11.11
2017-04-13T06:37:19.338Z,11.22
2017-04-13T06:38:19.369Z,11.19
2017-04-13T06:39:19.065Z,11.15
2017-04-13T06:40:19.393Z,11.18
2017-04-13T06:41:19.410Z,11.27
2017-04-13T06:42:19.428Z,11.26
2017-04-13T06:43:19.438Z,11.33
2017-04-13T06:44:19.465Z,11.27
2017-04-13T06:45:19.602Z,11.37
2017-04-13T06:46:19.610Z,11.41
2017-04-13T06:47:19.621Z,11.37
2017-04-13T06:48:19.628Z,11.45
2017-04-13T06:49:19.622Z,11.48
2017-04-13T06:50:19.631Z,11.52
2017-04-13T06:51:19.686Z,11.52
2017-04-13T06:52:19.667Z,11.59
2017-04-13T06:53:19.675Z,11.69
2017-04-13T06:54:19.695Z,11.75
2017-04-13T06:55:19.714Z,11.77
2017-04-13T06:56:19.749Z,11.77
2017-04-13T06:57:19.787Z,11.78
2017-04-13T06:58:19.796Z,11.75
2017-04-13T06:59:19.795Z,11.83
2017-04-13T07:00:19.804Z,11.88
2017-04-13T07:01:19.817Z,11.87
2017-04-13T07:02:19.434Z,11.9
2017-04-13T07:03:19.824Z,11.94
2017-04-13T07:04:19.813Z,11.87
2017-04-13T07:05:19.821Z,12.02
2017-04-13T07:06:19.831Z,11.95
2017-04-13T07:07:19.841Z,12
2017-04-13T07:08:19.848Z,12.03
2017-04-13T07:09:19.962Z,12.04
2017-04-13T07:10:19.956Z,12.1
2017-04-13T07:11:19.964Z,12.06
2017-04-13T07:12:19.910Z,12.06
2017-04-13T07:13:19.925Z,12.12
2017-04-13T07:14:19.950Z,12.09
2017-04-13T07:15:19.983Z,12.18
2017-04-13T07:16:19.979Z,12.21
2017-04-13T07:17:19.998Z,12.15
2017-04-13T07:18:20.009Z,12.22
2017-04-13T07:19:20.028Z,12.28
2017-04-13T07:20:20.046Z,12.24
2017-04-13T07:21:20.067Z,12.31
2017-04-13T07:22:19.820Z,12.32
2017-04-13T07:23:20.087Z,12.39
2017-04-13T07:24:20.104Z,12.35
2017-04-13T07:25:20.123Z,12.43
2017-04-13T07:26:20.139Z,12.37
2017-04-13T07:27:20.162Z,12.46
2017-04-13T07:28:20.182Z,12.46
2017-04-13T07:29:20.193Z,12.46
2017-04-13T07:30:20.207Z,12.45
2017-04-13T07:31:20.218Z,12.45
2017-04-13T07:32:20.245Z,12.45
2017-04-13T07:33:20.265Z,12.45
2017-04-13T07:34:20.270Z,12.4
2017-04-13T07:35:20.296Z,12.42
2017-04-13T07:36:20.315Z,12.43
2017-04-13T07:37:20.321Z,12.46
2017-04-13T07:38:20.345Z,12.42
2017-04-13T07:39:20.353Z,12.39
2017-04-13T07:40:20.379Z,12.39
2017-04-13T07:41:20.083Z,12.47
2017-04-13T07:42:20.415Z,12.45
2017-04-13T07:43:20.439Z,12.43
2017-04-13T07:44:20.482Z,12.5
2017-04-13T07:45:20.462Z,12.47
2017-04-13T07:46:20.171Z,12.47
2017-04-13T07:47:20.186Z,12.53
2017-04-13T07:48:20.517Z,12.55
2017-04-13T07:49:20.223Z,12.67
2017-04-13T07:50:20.229Z,12.62
2017-04-13T07:51:20.246Z,12.67
2017-04-13T07:52:20.268Z,12.7
2017-04-13T07:53:19.969Z,12.72
2017-04-13T07:54:20.610Z,12.79
2017-04-13T07:55:19.998Z,12.83
2017-04-13T07:56:20.644Z,12.86
2017-04-13T07:57:20.347Z,12.95
2017-04-13T07:58:20.385Z,12.91
2017-04-13T07:59:20.696Z,13.05
2017-04-13T08:00:20.713Z,13.09
2017-04-13T08:01:20.735Z,13.11
2017-04-13T08:02:20.747Z,13.01
2017-04-13T08:03:20.762Z,13.18
2017-04-13T08:04:20.780Z,13.04
2017-04-13T08:05:20.800Z,13.18
2017-04-13T08:06:20.813Z,13.19
2017-04-13T08:07:20.832Z,13.16
2017-04-13T08:08:20.224Z,13.19
2017-04-13T08:09:20.241Z,13.22
2017-04-13T08:10:20.882Z,13.19
2017-04-13T08:11:20.588Z,13.31
2017-04-13T08:12:20.606Z,13.38
2017-04-13T08:13:20.933Z,13.38
2017-04-13T08:14:20.949Z,13.35
2017-04-13T08:15:20.966Z,13.41
2017-04-13T08:16:20.680Z,13.46
2017-04-13T08:17:21.002Z,13.47
2017-04-13T08:18:21.022Z,13.5
2017-04-13T08:19:21.041Z,13.59
2017-04-13T08:20:20.742Z,13.63
2017-04-13T08:21:21.076Z,13.59
2017-04-13T08:22:21.097Z,13.62
2017-04-13T08:23:21.110Z,13.59
2017-04-13T08:24:20.812Z,13.6
2017-04-13T08:25:20.869Z,13.6
2017-04-13T08:26:21.160Z,13.6
2017-04-13T08:27:21.187Z,13.68
2017-04-13T08:28:21.201Z,13.7
2017-04-13T08:29:21.212Z,13.74
2017-04-13T08:30:21.233Z,13.68
2017-04-13T08:31:21.249Z,13.63
2017-04-13T08:32:21.266Z,13.68
2017-04-13T08:33:21.281Z,13.74
2017-04-13T08:34:21.304Z,13.72
2017-04-13T08:35:21.325Z,13.77
2017-04-13T08:36:21.025Z,13.74
2017-04-13T08:37:21.039Z,13.77
2017-04-13T08:38:21.368Z,13.78
2017-04-13T08:39:21.391Z,13.79
2017-04-13T08:40:21.406Z,13.78
2017-04-13T08:41:21.423Z,13.79
2017-04-13T08:42:21.447Z,13.78
2017-04-13T08:43:21.145Z,13.78
2017-04-13T08:44:21.485Z,13.75
2017-04-13T08:45:21.494Z,13.75
2017-04-13T08:46:21.517Z,13.81
2017-04-13T08:47:21.578Z,13.75
2017-04-13T08:48:21.235Z,13.81
2017-04-13T08:49:21.596Z,13.77
2017-04-13T08:50:21.603Z,13.75
2017-04-13T08:51:21.298Z,13.79
2017-04-13T08:52:21.620Z,13.87
2017-04-13T08:53:21.755Z,13.81
2017-04-13T08:54:21.774Z,13.87
2017-04-13T08:55:21.773Z,13.85
2017-04-13T08:56:21.805Z,13.87
2017-04-13T08:57:21.816Z,13.92
2017-04-13T08:58:21.734Z,13.93
2017-04-13T08:59:21.864Z,13.92
2017-04-13T09:00:21.864Z,13.92
2017-04-13T09:01:21.871Z,13.93
2017-04-13T09:02:21.178Z,13.95
2017-04-13T09:03:21.192Z,13.95
2017-04-13T09:04:21.635Z,13.9
2017-04-13T09:05:21.228Z,13.96
2017-04-13T09:06:21.244Z,14
2017-04-13T09:07:21.579Z,14.05
2017-04-13T09:08:21.707Z,14.08
2017-04-13T09:09:21.716Z,14.1
2017-04-13T09:10:22.046Z,14.15
2017-04-13T09:11:21.758Z,14.07
2017-04-13T09:12:22.172Z,14.26
2017-04-13T09:13:21.745Z,14.22
2017-04-13T09:14:22.198Z,14.17
2017-04-13T09:15:22.209Z,14.14
2017-04-13T09:16:22.187Z,14.17
2017-04-13T09:17:21.852Z,14.1
2017-04-13T09:18:21.869Z,14.26
2017-04-13T09:19:21.928Z,14.3
2017-04-13T09:20:22.047Z,14.3
2017-04-13T09:21:22.012Z,14.29
2017-04-13T09:22:22.215Z,14.36
2017-04-13T09:23:22.226Z,14.41
2017-04-13T09:24:21.709Z,14.35
2017-04-13T09:25:22.233Z,14.32
2017-04-13T09:26:22.235Z,14.44
2017-04-13T09:27:22.045Z,14.41
2017-04-13T09:28:22.270Z,14.47
2017-04-13T09:29:22.065Z,14.47
2017-04-13T09:30:22.310Z,14.48
2017-04-13T09:31:22.321Z,14.54
2017-04-13T09:32:22.167Z,14.51
2017-04-13T09:33:22.049Z,14.53
2017-04-13T09:34:22.380Z,14.55
2017-04-13T09:35:22.404Z,14.63
2017-04-13T09:36:22.417Z,14.59
2017-04-13T09:37:22.433Z,14.63
2017-04-13T09:38:22.233Z,14.62
2017-04-13T09:39:22.469Z,14.66
2017-04-13T09:40:22.493Z,14.72
2017-04-13T09:41:22.261Z,14.77
2017-04-13T09:42:22.528Z,14.65
2017-04-13T09:43:22.550Z,14.78
2017-04-13T09:44:22.571Z,14.81
2017-04-13T09:45:22.585Z,14.77
2017-04-13T09:46:22.601Z,14.81
2017-04-13T09:47:22.629Z,14.73
2017-04-13T09:48:22.639Z,14.78
2017-04-13T09:49:22.662Z,14.78
2017-04-13T09:50:22.681Z,14.78
2017-04-13T09:51:22.398Z,14.86
2017-04-13T09:52:22.716Z,14.96
2017-04-13T09:53:22.428Z,14.91
2017-04-13T09:54:22.437Z,14.96
2017-04-13T09:55:22.767Z,14.96
2017-04-13T09:56:22.798Z,14.99
2017-04-13T09:57:22.809Z,14.96
2017-04-13T09:58:22.832Z,15.02
2017-04-13T09:59:22.534Z,15.04
2017-04-13T10:00:22.553Z,15.02
2017-04-13T10:01:22.569Z,15.03
2017-04-13T10:02:22.912Z,15.11
2017-04-13T10:03:22.604Z,15.14
2017-04-13T10:04:22.937Z,15.17
2017-04-13T10:05:22.956Z,15.09
2017-04-13T10:06:22.979Z,15.19
2017-04-13T10:07:22.997Z,15.21
2017-04-13T10:08:23.017Z,15.25
2017-04-13T10:09:23.046Z,15.18
2017-04-13T10:10:22.737Z,15.35
2017-04-13T10:11:23.065Z,15.33
2017-04-13T10:12:23.085Z,15.28
2017-04-13T10:13:22.795Z,15.35
2017-04-13T10:14:23.126Z,15.31
2017-04-13T10:15:23.145Z,15.42
2017-04-13T10:16:22.848Z,15.39
2017-04-13T10:17:23.183Z,15.37
2017-04-13T10:18:22.913Z,15.44
2017-04-13T10:19:23.222Z,15.44
2017-04-13T10:20:23.244Z,15.47
2017-04-13T10:21:23.257Z,15.46
2017-04-13T10:22:23.280Z,15.59
2017-04-13T10:23:23.296Z,15.58
2017-04-13T10:24:23.318Z,15.64
2017-04-13T10:25:23.334Z,15.61
2017-04-13T10:26:23.362Z,15.65
2017-04-13T10:27:23.373Z,15.65
2017-04-13T10:28:23.390Z,15.76
2017-04-13T10:29:23.414Z,15.72
2017-04-13T10:30:23.440Z,15.82
2017-04-13T10:31:23.465Z,15.77
2017-04-13T10:32:23.473Z,15.94
2017-04-13T10:33:23.487Z,15.9
2017-04-13T10:34:23.196Z,15.88
2017-04-13T10:35:23.530Z,15.97
2017-04-13T10:36:23.551Z,16
2017-04-13T10:37:23.613Z,15.97
2017-04-13T10:38:23.274Z,15.97
2017-04-13T10:39:23.295Z,16.04
2017-04-13T10:40:23.624Z,16.1
2017-04-13T10:41:23.649Z,16.12
2017-04-13T10:42:23.353Z,16.2
2017-04-13T10:43:23.370Z,16.17
2017-04-13T10:44:23.708Z,16.2
2017-04-13T10:45:23.726Z,16.36
2017-04-13T10:46:23.434Z,16.36
2017-04-13T10:47:23.767Z,16.41
2017-04-13T10:48:23.471Z,16.43
2017-04-13T10:49:23.928Z,16.56
2017-04-13T10:50:23.927Z,16.54
2017-04-13T10:51:23.633Z,16.64
2017-04-13T10:52:24.081Z,16.64
2017-04-13T10:53:24.075Z,16.6
2017-04-13T10:54:24.070Z,16.61
2017-04-13T10:55:24.096Z,16.65
2017-04-13T10:56:24.058Z,16.75
2017-04-13T10:57:24.067Z,16.76
2017-04-13T10:58:23.808Z,16.79
2017-04-13T10:59:24.109Z,16.86
2017-04-13T11:00:24.113Z,16.83
2017-04-13T11:01:23.561Z,16.84
2017-04-13T11:02:24.139Z,16.84
2017-04-13T11:03:24.084Z,16.83
2017-04-13T11:04:24.103Z,16.84
2017-04-13T11:05:24.127Z,16.89
2017-04-13T11:06:24.142Z,16.84
2017-04-13T11:07:24.157Z,16.84
2017-04-13T11:08:24.181Z,16.81
2017-04-13T11:09:24.201Z,16.79
2017-04-13T11:10:24.227Z,16.84
2017-04-13T11:11:24.004Z,16.84
2017-04-13T11:12:24.080Z,16.83
2017-04-13T11:13:24.349Z,16.81
2017-04-13T11:14:24.298Z,16.78
2017-04-13T11:15:24.102Z,16.76
2017-04-13T11:16:24.151Z,16.69
2017-04-13T11:17:24.361Z,16.66
2017-04-13T11:18:24.117Z,16.6
2017-04-13T11:19:24.088Z,16.61
2017-04-13T11:20:24.108Z,16.54
2017-04-13T11:21:24.127Z,16.56
2017-04-13T11:22:24.459Z,16.47
2017-04-13T11:23:24.164Z,16.5
2017-04-13T11:24:24.196Z,16.46
2017-04-13T11:25:24.528Z,16.47
2017-04-13T11:26:24.230Z,16.36
2017-04-13T11:27:24.248Z,16.36
2017-04-13T11:28:24.269Z,16.39
2017-04-13T11:29:24.603Z,16.42
2017-04-13T11:30:24.309Z,16.38
2017-04-13T11:31:24.331Z,16.35
2017-04-13T11:32:24.725Z,16.2
2017-04-13T11:33:24.890Z,16.26
2017-04-13T11:34:24.408Z,16.29
2017-04-13T11:35:24.723Z,16.24
2017-04-13T11:36:24.742Z,16.29
2017-04-13T11:37:24.814Z,16.23
2017-04-13T11:38:24.784Z,16.23
2017-04-13T11:39:24.807Z,16.26
2017-04-13T11:40:24.822Z,16.2
2017-04-13T11:41:24.846Z,16.24
2017-04-13T11:42:24.876Z,16.23
2017-04-13T11:43:24.886Z,16.29
2017-04-13T11:44:24.903Z,16.31
2017-04-13T11:45:24.921Z,16.33
2017-04-13T11:46:24.317Z,16.39
2017-04-13T11:47:24.654Z,16.41
2017-04-13T11:48:24.688Z,16.39
2017-04-13T11:49:24.696Z,16.49
2017-04-13T11:50:25.040Z,16.42
2017-04-13T11:51:24.753Z,16.43
2017-04-13T11:52:25.067Z,16.47
2017-04-13T11:53:25.089Z,16.47
2017-04-13T11:54:24.485Z,16.64
2017-04-13T11:55:24.502Z,16.64
2017-04-13T11:56:25.150Z,16.75
2017-04-13T11:57:24.542Z,16.74
2017-04-13T11:58:24.872Z,16.75
2017-04-13T11:59:24.891Z,16.84
2017-04-13T12:00:24.914Z,16.75
2017-04-13T12:01:25.249Z,16.81
2017-04-13T12:02:25.266Z,16.81
2017-04-13T12:03:25.284Z,16.79
2017-04-13T12:04:24.993Z,16.86
2017-04-13T12:05:25.321Z,16.87
2017-04-13T12:06:25.035Z,16.84
2017-04-13T12:07:25.366Z,16.79
2017-04-13T12:08:25.388Z,16.9
2017-04-13T12:09:25.091Z,16.9
2017-04-13T12:10:25.197Z,16.89
2017-04-13T12:11:25.531Z,16.9
2017-04-13T12:12:24.850Z,16.91
2017-04-13T12:13:25.263Z,16.94
2017-04-13T12:14:25.572Z,17.01
2017-04-13T12:15:25.581Z,17.02
2017-04-13T12:16:25.590Z,16.89
2017-04-13T12:17:25.298Z,16.83
2017-04-13T12:18:25.308Z,16.89
2017-04-13T12:19:25.306Z,16.83
2017-04-13T12:20:25.005Z,16.86
2017-04-13T12:21:25.660Z,16.78
2017-04-13T12:22:25.671Z,16.79
2017-04-13T12:23:25.695Z,16.78
2017-04-13T12:24:25.713Z,16.74
2017-04-13T12:25:25.738Z,16.65
2017-04-13T12:26:25.533Z,16.72
2017-04-13T12:27:25.780Z,16.66
2017-04-13T12:28:25.566Z,16.6
2017-04-13T12:29:25.815Z,16.58
2017-04-13T12:30:25.554Z,16.49
2017-04-13T12:31:25.860Z,16.51
2017-04-13T12:32:25.571Z,16.46
2017-04-13T12:33:25.907Z,16.36
2017-04-13T12:34:25.921Z,16.33
2017-04-13T12:35:25.936Z,16.31
2017-04-13T12:36:25.960Z,16.26
2017-04-13T12:37:25.667Z,16.23
2017-04-13T12:38:25.696Z,16.21
2017-04-13T12:39:25.707Z,16.17
2017-04-13T12:40:25.725Z,16.16
2017-04-13T12:41:26.063Z,16.02
2017-04-13T12:42:26.086Z,16
2017-04-13T12:43:25.790Z,16.01
2017-04-13T12:44:25.812Z,15.9
2017-04-13T12:45:26.147Z,15.98
2017-04-13T12:46:26.173Z,16
2017-04-13T12:47:26.181Z,15.91
2017-04-13T12:48:26.202Z,15.97
2017-04-13T12:49:26.219Z,15.83
2017-04-13T12:50:26.250Z,15.77
2017-04-13T12:51:26.259Z,15.72
2017-04-13T12:52:25.968Z,15.67
2017-04-13T12:53:26.352Z,15.72
2017-04-13T12:54:25.696Z,15.64
2017-04-13T12:55:25.712Z,15.62
2017-04-13T12:56:26.492Z,15.62